Time;durP1;ratioP1;P1;durP2;ratioP2;P2;SDS_P1;SDS_P2;PMS_P1;PMS_P2;Temp;Humidity;BMP_temperature;BMP_pressure;BME280_temperature;BME280_humidity;BME280_pressure;Samples;Min_cycle;Max_cycle;Signal;HPM_P1;HPM_P2
2022/04/05 00:02:09;;;;;;;15.70;7.80;;;;;;;8.84;100.00;100455.66;5017124;28;20010;-85
2022/04/05 00:04:37;;;;;;;17.53;8.40;;;;;;;8.85;100.00;100464.31;5018692;28;20467;-85
2022/04/05 00:07:02;;;;;;;15.90;7.95;;;;;;;8.84;100.00;100452.25;5017625;28;20018;-86
2022/04/05 00:09:27;;;;;;;15.20;7.70;;;;;;;8.83;100.00;100469.50;5015955;28;20033;-85
2022/04/05 00:11:52;;;;;;;14.45;6.97;;;;;;;8.83;100.00;100468.63;5016889;28;20021;-85
2022/04/05 00:14:18;;;;;;;13.73;6.67;;;;;;;8.83;99.93;100463.47;5016446;28;20021;-85
2022/04/05 00:16:44;;;;;;;12.17;6.63;;;;;;;8.83;99.91;100460.88;5015876;28;20091;-85
2022/04/05 00:19:09;;;;;;;12.52;6.70;;;;;;;8.83;99.97;100468.63;5016320;28;20469;-85
2022/04/05 00:21:34;;;;;;;14.67;7.27;;;;;;;8.81;99.84;100469.50;5016281;28;20030;-86
2022/04/05 00:24:00;;;;;;;14.10;6.47;;;;;;;8.81;100.00;100474.69;5015874;28;20033;-86
2022/04/05 00:26:25;;;;;;;17.65;7.40;;;;;;;8.81;100.00;100476.44;5016374;28;20026;-85
2022/04/05 00:28:50;;;;;;;12.97;6.90;;;;;;;8.80;100.00;100466.97;5002227;28;20054;-85
2022/04/05 00:31:21;;;;;;;15.70;7.23;;;;;;;8.80;100.00;100472.97;4995991;28;20084;-85
2022/04/05 00:33:46;;;;;;;13.80;6.40;;;;;;;8.79;100.00;100478.19;4996815;28;20030;-85
2022/04/05 00:36:11;;;;;;;11.47;6.07;;;;;;;8.78;100.00;100471.28;4996548;28;20073;-86
2022/04/05 00:38:37;;;;;;;12.53;6.40;;;;;;;8.76;100.00;100468.75;4995821;28;20038;-85
2022/04/05 00:41:02;;;;;;;12.40;6.40;;;;;;;8.75;100.00;100472.19;5001981;28;20033;-86
2022/04/05 00:43:30;;;;;;;10.90;5.90;;;;;;;8.74;100.00;100475.66;5015872;28;20038;-85
2022/04/05 00:45:55;;;;;;;13.15;6.35;;;;;;;8.75;100.00;100476.50;5015079;28;20046;-85
2022/04/05 00:48:29;;;;;;;14.97;6.83;;;;;;;8.74;100.00;100474.78;5015565;28;20382;-85
2022/04/05 00:50:55;;;;;;;14.10;6.40;;;;;;;8.73;100.00;100479.13;5014453;28;20073;-85
2022/04/05 00:58:32;;;;;;;9.93;5.13;;;;;;;8.69;100.00;100477.44;5502200;23;20069;-85
2022/04/05 01:00:58;;;;;;;;;;;;;;;8.68;100.00;100480.91;5015685;28;20038;-85
2022/04/05 01:03:24;;;;;;;13.35;6.25;;;;;;;8.68;100.00;100477.47;5017784;28;20302;-86
2022/04/05 01:08:25;;;;;;;10.75;5.25;;;;;;;8.66;100.00;100477.50;5964560;23;20052;-85
2022/04/05 01:10:51;;;;;;;10.23;5.23;;;;;;;8.65;100.00;100478.38;5017070;28;20417;-85
2022/04/05 01:13:18;;;;;;;10.23;5.18;;;;;;;8.67;100.00;100486.09;5014678;28;20072;-85
2022/04/05 01:15:43;;;;;;;11.35;5.45;;;;;;;8.64;100.00;100481.84;5015733;28;20030;-85
2022/04/05 01:18:15;;;;;;;11.30;5.80;;;;;;;8.65;100.00;100484.38;5015176;28;20072;-85
2022/04/05 01:20:40;;;;;;;10.70;5.65;;;;;;;8.64;100.00;100476.66;5014597;28;20025;-85
2022/04/05 01:23:05;;;;;;;10.40;5.50;;;;;;;8.64;100.00;100484.41;5015221;28;20025;-85
2022/04/05 01:25:31;;;;;;;10.07;5.10;;;;;;;8.64;100.00;100487.00;5015092;28;20030;-85
2022/04/05 01:27:57;;;;;;;10.40;5.17;;;;;;;8.62;100.00;100484.41;5014552;28;20029;-84
2022/04/05 01:30:22;;;;;;;9.10;5.00;;;;;;;8.62;100.00;100486.16;5014306;28;20437;-85
2022/04/05 01:32:48;;;;;;;9.47;5.10;;;;;;;8.62;100.00;100491.34;5015114;28;20041;-85
2022/04/05 01:35:19;;;;;;;8.93;5.07;;;;;;;8.62;100.00;100499.09;5013033;28;20128;-85
2022/04/05 01:37:44;;;;;;;10.73;5.30;;;;;;;8.60;100.00;100487.91;4996466;28;20022;-85
2022/04/05 01:40:10;;;;;;;9.20;5.20;;;;;;;8.58;100.00;100493.13;4996424;28;20111;-85
2022/04/05 01:42:37;;;;;;;11.20;5.80;;;;;;;8.59;100.00;100491.38;4994301;28;20113;-85
2022/04/05 01:45:02;;;;;;;10.73;6.03;;;;;;;8.56;100.00;100489.69;4996189;28;20486;-85
2022/04/05 01:47:28;;;;;;;12.67;6.73;;;;;;;8.56;100.00;100487.09;4994870;28;20034;-85
2022/04/05 01:49:54;;;;;;;12.32;6.38;;;;;;;8.56;100.00;100494.88;4994519;28;20044;-85
2022/04/05 01:52:19;;;;;;;14.27;6.90;;;;;;;8.56;100.00;100492.28;4994970;28;20027;-85
2022/04/05 01:54:45;;;;;;;14.33;6.60;;;;;;;8.57;100.00;100487.94;4995277;28;20026;-85
2022/04/05 01:57:11;;;;;;;13.48;6.88;;;;;;;8.56;100.00;100486.22;4994355;28;20414;-85
2022/04/05 01:59:38;;;;;;;11.63;6.47;;;;;;;8.55;100.00;100489.72;4994807;28;20114;-85
2022/04/05 02:02:06;;;;;;;13.98;6.90;;;;;;;8.56;100.00;100488.81;4993778;28;20034;-85
2022/04/05 02:04:31;;;;;;;13.38;6.53;;;;;;;8.56;100.00;100481.06;4994846;28;20058;-85
2022/04/05 02:06:57;;;;;;;15.73;7.43;;;;;;;8.56;100.00;100488.81;5012251;28;20057;-85
2022/04/05 02:09:22;;;;;;;13.38;6.88;;;;;;;8.54;100.00;100485.41;5013470;28;20453;-85
2022/04/05 02:11:48;;;;;;;13.43;6.70;;;;;;;8.56;100.00;100494.00;5006438;28;20037;-85
2022/04/05 02:14:16;;;;;;;14.40;7.47;;;;;;;8.57;100.00;100490.53;4994686;28;20022;-85
2022/04/05 02:16:42;;;;;;;15.95;7.15;;;;;;;8.55;100.00;100490.56;4997409;28;20018;-85
2022/04/05 02:19:07;;;;;;;12.50;6.67;;;;;;;8.55;100.00;100500.06;4994526;28;20041;-85
2022/04/05 02:21:32;;;;;;;12.97;6.77;;;;;;;8.55;100.00;100495.72;4994512;28;20109;-84
2022/04/05 02:23:58;;;;;;;15.33;7.17;;;;;;;8.53;100.00;100496.63;4994119;28;20038;-85
2022/04/05 02:26:23;;;;;;;13.43;6.80;;;;;;;8.54;100.00;100493.19;4994209;28;20026;-85
2022/04/05 02:28:48;;;;;;;13.00;6.47;;;;;;;8.54;100.00;100504.38;4994515;28;20026;-85
2022/04/05 02:31:14;;;;;;;12.82;6.40;;;;;;;8.54;100.00;100495.75;4993532;28;20557;-85
2022/04/05 02:33:40;;;;;;;10.47;5.87;;;;;;;8.53;100.00;100500.06;4994213;28;20023;-85
2022/04/05 02:36:05;;;;;;;15.93;7.47;;;;;;;8.53;100.00;100499.22;4994380;28;20677;-84
2022/04/05 02:38:31;;;;;;;15.97;7.73;;;;;;;8.52;100.00;100498.34;4991848;28;20097;-85
2022/04/05 02:40:57;;;;;;;16.42;7.95;;;;;;;8.52;100.00;100500.09;4994429;28;20037;-85
2022/04/05 02:43:23;;;;;;;14.73;6.77;;;;;;;8.52;100.00;100500.09;4993911;28;20026;-85
2022/04/05 02:45:49;;;;;;;11.50;6.22;;;;;;;8.52;100.00;100500.09;4993191;28;20030;-85
2022/04/05 02:48:14;;;;;;;13.33;6.57;;;;;;;8.51;100.00;100499.22;4994205;28;20025;-85
2022/04/05 02:50:39;;;;;;;12.20;6.13;;;;;;;8.51;100.00;100496.63;4993924;28;20027;-85
2022/04/05 02:53:05;;;;;;;12.87;6.37;;;;;;;8.51;100.00;100494.06;4993340;28;20030;-85
2022/04/05 02:55:33;;;;;;;11.63;5.90;;;;;;;8.52;100.00;100497.50;4993527;28;20034;-84
2022/04/05 02:57:58;;;;;;;9.85;5.15;;;;;;;8.50;100.00;100493.22;5012469;28;20037;-85
2022/04/05 03:00:24;;;;;;;11.73;5.63;;;;;;;8.50;100.00;100495.78;5012290;28;20029;-85
2022/04/05 03:02:49;;;;;;;8.80;4.97;;;;;;;8.49;100.00;100494.09;5013230;28;20052;-84
2022/04/05 03:05:14;;;;;;;7.60;4.65;;;;;;;8.51;100.00;100488.88;5012438;28;20022;-84
2022/04/05 03:07:41;;;;;;;6.87;4.73;;;;;;;8.52;99.98;100492.34;5013234;28;20489;-85
2022/04/05 03:10:08;;;;;;;9.23;5.15;;;;;;;8.50;100.00;100490.63;5002292;28;20057;-85
2022/04/05 03:12:35;;;;;;;9.75;5.03;;;;;;;8.50;100.00;100495.78;4992613;28;20113;-85
2022/04/05 03:15:01;;;;;;;9.25;5.32;;;;;;;8.49;100.00;100488.91;4992865;28;20028;-85
2022/04/05 03:17:26;;;;;;;8.87;5.00;;;;;;;8.51;100.00;100499.22;4993372;28;20034;-85
2022/04/05 03:19:51;;;;;;;6.73;4.07;;;;;;;8.50;99.67;100492.34;4993119;28;20455;-85
2022/04/05 03:22:17;;;;;;;8.33;4.10;;;;;;;8.49;99.61;100495.81;4995818;28;20061;-84
2022/04/05 03:24:43;;;;;;;7.73;4.10;;;;;;;8.50;99.62;100497.50;4993633;28;20028;-85
2022/04/05 03:27:08;;;;;;;5.33;3.70;;;;;;;8.50;99.57;100494.91;4992913;28;20026;-85
2022/04/05 03:29:34;;;;;;;8.80;4.87;;;;;;;8.50;99.65;100493.22;4993223;28;20101;-85
2022/04/05 03:31:59;;;;;;;9.23;4.50;;;;;;;8.51;99.46;100491.47;4993372;28;20037;-84
2022/04/05 03:34:24;;;;;;;6.83;4.13;;;;;;;8.50;99.63;100493.22;4994686;28;20036;-84
2022/04/05 03:36:50;;;;;;;10.97;4.73;;;;;;;8.52;100.00;100490.59;4995980;28;20363;-84
2022/04/05 03:39:15;;;;;;;8.73;5.00;;;;;;;8.52;99.90;100489.75;4999942;28;20029;-84
2022/04/05 03:41:41;;;;;;;8.50;4.40;;;;;;;8.50;99.78;100484.56;5014294;28;20080;-84
2022/04/05 03:44:06;;;;;;;8.07;4.77;;;;;;;8.48;99.88;100487.19;5012863;28;20484;-85
2022/04/05 03:46:32;;;;;;;9.57;5.18;;;;;;;8.50;99.86;100487.16;5012973;28;20057;-85
2022/04/05 03:48:58;;;;;;;10.77;5.50;;;;;;;8.47;100.00;100490.66;5012861;28;20030;-85
2022/04/05 03:51:23;;;;;;;9.73;5.20;;;;;;;8.48;100.00;100488.94;5012608;28;20100;-85
2022/04/05 03:53:48;;;;;;;9.27;5.30;;;;;;;8.48;99.84;100478.59;5012532;28;20573;-85
2022/04/05 03:56:13;;;;;;;9.77;5.07;;;;;;;8.47;100.00;100487.19;5012371;28;20030;-85
2022/04/05 03:58:39;;;;;;;12.87;6.00;;;;;;;8.47;100.00;100492.38;5012559;28;20033;-86
2022/04/05 04:01:04;;;;;;;11.00;5.70;;;;;;;8.46;100.00;100491.50;5014405;28;20025;-86
2022/04/05 04:03:29;;;;;;;14.18;6.07;;;;;;;8.45;100.00;100487.19;5013156;28;20044;-85
2022/04/05 04:05:55;;;;;;;11.33;6.07;;;;;;;8.46;100.00;100486.31;5000292;28;20038;-85
2022/04/05 04:08:20;;;;;;;11.97;5.70;;;;;;;8.46;100.00;100486.31;4992908;28;20038;-86
2022/04/05 04:10:48;;;;;;;12.93;6.03;;;;;;;8.46;99.82;100485.47;4992837;28;20058;-86
2022/04/05 04:13:14;;;;;;;10.15;5.40;;;;;;;8.46;100.00;100480.31;4992950;28;20034;-86
2022/04/05 04:15:39;;;;;;;9.97;5.17;;;;;;;8.46;100.00;100481.16;4992430;28;20398;-85
2022/04/05 04:18:04;;;;;;;10.07;5.27;;;;;;;8.45;99.96;100478.59;4993076;28;20459;-86
2022/04/05 04:20:30;;;;;;;10.83;5.60;;;;;;;8.45;100.00;100479.44;4993093;28;20015;-86
2022/04/05 04:22:55;;;;;;;9.97;5.40;;;;;;;8.45;100.00;100484.59;4992651;28;20476;-87
2022/04/05 04:25:20;;;;;;;9.13;4.83;;;;;;;8.45;99.87;100482.00;4993549;28;20022;-86
2022/04/05 04:27:45;;;;;;;9.10;4.70;;;;;;;8.45;99.88;100479.44;4996852;28;20117;-86
2022/04/05 04:30:11;;;;;;;9.20;4.93;;;;;;;8.44;99.88;100477.75;4997684;28;20027;-85
2022/04/05 04:32:39;;;;;;;8.27;4.72;;;;;;;8.45;99.91;100481.19;4996536;28;20121;-85
2022/04/05 04:35:05;;;;;;;10.90;5.38;;;;;;;8.46;99.47;100480.31;4996705;28;20026;-84
2022/04/05 04:37:31;;;;;;;11.00;5.57;;;;;;;8.45;99.95;100476.84;4995516;28;20080;-86
2022/04/05 04:39:56;;;;;;;12.02;5.47;;;;;;;8.45;99.97;100487.19;4996579;28;20022;-86
2022/04/05 04:42:21;;;;;;;10.20;5.30;;;;;;;8.46;100.00;100480.31;4996057;28;20030;-85
2022/04/05 04:44:47;;;;;;;9.70;5.18;;;;;;;8.46;100.00;100475.97;4996013;28;20025;-86
2022/04/05 04:47:12;;;;;;;9.83;5.40;;;;;;;8.46;100.00;100477.72;4997318;28;20027;-86
2022/04/05 04:49:37;;;;;;;9.80;5.47;;;;;;;8.46;100.00;100490.66;4996385;28;20077;-85
2022/04/05 04:52:03;;;;;;;9.50;4.90;;;;;;;8.46;100.00;100486.31;4995661;28;20096;-86
2022/04/05 04:54:28;;;;;;;11.17;5.73;;;;;;;8.47;99.87;100490.66;4996083;28;20084;-86
2022/04/05 04:56:54;;;;;;;9.80;5.53;;;;;;;8.46;100.00;100491.50;4996240;28;20459;-85
2022/04/05 04:59:19;;;;;;;11.37;5.80;;;;;;;8.47;100.00;100492.38;4995204;28;20034;-85
2022/04/05 05:01:44;;;;;;;11.07;5.80;;;;;;;8.46;100.00;100499.25;4996009;28;20072;-86
2022/04/05 05:04:09;;;;;;;10.70;5.93;;;;;;;8.46;100.00;100496.66;5009684;28;20037;-86
2022/04/05 05:06:35;;;;;;;10.73;5.10;;;;;;;8.46;100.00;100498.41;5014566;28;20490;-84
2022/04/05 05:09:00;;;;;;;12.03;6.10;;;;;;;8.46;100.00;100490.66;5015276;28;20053;-85
2022/04/05 05:11:25;;;;;;;11.03;5.63;;;;;;;8.46;100.00;100485.47;5015029;28;20022;-85
2022/04/05 05:13:50;;;;;;;11.90;5.93;;;;;;;8.44;100.00;100493.25;5014110;28;20030;-83
2022/04/05 05:16:16;;;;;;;9.65;5.55;;;;;;;8.45;100.00;100496.69;5015329;28;20030;-84
2022/04/05 05:18:42;;;;;;;12.80;5.67;;;;;;;8.45;100.00;100497.53;4999798;28;20050;-83
2022/04/05 05:21:07;;;;;;;11.80;6.07;;;;;;;8.46;100.00;100506.16;5006304;28;20156;-84
2022/04/05 05:23:32;;;;;;;12.02;5.88;;;;;;;8.49;100.00;100496.66;5000138;28;20801;-84
2022/04/05 05:25:58;;;;;;;11.88;5.80;;;;;;;8.45;100.00;100497.53;4995573;28;20083;-83
2022/04/05 05:28:23;;;;;;;12.30;6.00;;;;;;;8.46;100.00;100504.41;4996305;28;20498;-84
2022/04/05 05:30:48;;;;;;;11.05;5.43;;;;;;;8.46;100.00;100501.84;5007110;28;20026;-84
2022/04/05 05:33:13;;;;;;;11.27;6.10;;;;;;;8.46;100.00;100499.25;4994691;28;20069;-84
2022/04/05 05:35:39;;;;;;;10.20;5.53;;;;;;;8.44;100.00;100498.44;4996827;28;20035;-85
2022/04/05 05:38:07;;;;;;;9.27;5.10;;;;;;;8.47;100.00;100495.81;4994629;28;20026;-84
2022/04/05 05:40:32;;;;;;;9.43;5.40;;;;;;;8.47;100.00;100497.53;4994196;28;20036;-84
2022/04/05 05:43:01;;;;;;;10.73;5.73;;;;;;;8.46;100.00;100501.84;4995595;28;20112;-86
2022/04/05 05:45:28;;;;;;;11.38;5.63;;;;;;;8.45;100.00;100500.13;4995766;28;20081;-86
2022/04/05 05:47:53;;;;;;;10.88;5.90;;;;;;;8.47;100.00;100510.47;5005505;28;20072;-84
2022/04/05 05:50:19;;;;;;;10.40;5.70;;;;;;;8.47;100.00;100513.94;5000284;28;20034;-90
2022/04/05 05:52:46;;;;;;;11.32;5.88;;;;;;;8.47;100.00;100511.34;4996371;28;20042;-88
2022/04/05 05:55:13;;;;;;;11.07;5.82;;;;;;;8.49;100.00;100516.50;4995913;28;20022;-88
2022/04/05 05:57:40;;;;;;;11.75;6.20;;;;;;;8.45;100.00;100512.22;4995046;28;20023;-88
2022/04/05 06:00:10;;;;;;;11.13;6.05;;;;;;;8.49;100.00;100519.09;4995023;28;20546;-84
2022/04/05 06:02:40;;;;;;;11.50;5.78;;;;;;;8.48;100.00;100523.41;5011171;28;20038;-84
2022/04/05 06:05:06;;;;;;;13.35;6.18;;;;;;;8.50;100.00;100529.41;5014529;28;20030;-85
2022/04/05 06:07:34;;;;;;;14.23;6.68;;;;;;;8.48;100.00;100528.56;5015509;28;20026;-85
2022/04/05 06:09:59;;;;;;;13.35;6.60;;;;;;;8.47;100.00;100526.84;5016122;28;20034;-84
2022/04/05 06:12:27;;;;;;;13.70;7.03;;;;;;;8.48;100.00;100528.56;5017605;28;20600;-83
2022/04/05 06:14:52;;;;;;;11.98;5.95;;;;;;;8.47;100.00;100523.41;5015077;28;20065;-84
2022/04/05 06:17:18;;;;;;;11.17;5.73;;;;;;;8.48;100.00;100526.00;5013720;28;20053;-85
2022/04/05 06:19:45;;;;;;;11.77;5.87;;;;;;;8.50;100.00;100525.97;5013630;28;20026;-84
2022/04/05 06:22:11;;;;;;;11.63;6.20;;;;;;;8.49;100.00;100527.69;5013293;28;20493;-84
2022/04/05 06:24:36;;;;;;;13.13;6.43;;;;;;;8.48;100.00;100531.16;5013635;28;20037;-83
2022/04/05 06:27:01;;;;;;;14.00;6.90;;;;;;;8.50;100.00;100537.19;4999039;28;20026;-84
2022/04/05 06:29:26;;;;;;;12.53;6.30;;;;;;;8.52;100.00;100537.16;5001327;28;20896;-84
2022/04/05 06:31:52;;;;;;;13.13;6.47;;;;;;;8.53;100.00;100532.84;5014147;28;20101;-83
2022/04/05 06:34:17;;;;;;;13.80;6.65;;;;;;;8.53;100.00;100538.03;5013640;28;20025;-82
2022/04/05 06:36:45;;;;;;;12.07;6.20;;;;;;;8.53;100.00;100541.44;5013271;28;20034;-84
2022/04/05 06:39:10;;;;;;;14.30;6.75;;;;;;;8.56;100.00;100543.13;5013461;28;20408;-82
2022/04/05 06:41:36;;;;;;;14.07;6.80;;;;;;;8.58;100.00;100541.38;5013580;28;20417;-83
2022/04/05 06:44:04;;;;;;;12.05;6.07;;;;;;;8.59;99.83;100548.28;5012379;28;20022;-83
2022/04/05 06:46:29;;;;;;;10.93;5.85;;;;;;;8.60;99.96;100547.41;5013305;28;20042;-88
2022/04/05 06:48:54;;;;;;;10.10;5.40;;;;;;;8.63;99.78;100547.38;5013653;28;20581;-77
2022/04/05 06:51:20;;;;;;;13.23;6.13;;;;;;;8.65;99.97;100554.25;5012647;28;20116;-84
2022/04/05 06:53:46;;;;;;;11.88;5.57;;;;;;;8.67;99.65;100555.97;5013489;28;20065;-77
2022/04/05 06:56:11;;;;;;;9.93;5.53;;;;;;;8.68;99.78;100558.50;5013771;28;20426;-84
2022/04/05 06:58:37;;;;;;;7.93;4.70;;;;;;;8.70;99.56;100556.78;5013644;28;20049;-89
2022/04/05 07:01:02;;;;;;;10.50;5.00;;;;;;;8.72;99.31;100562.78;5002566;28;20463;-85
2022/04/05 07:03:28;;;;;;;10.87;5.47;;;;;;;8.72;99.27;100557.63;4993262;28;20109;-85
2022/04/05 07:05:53;;;;;;;12.77;5.68;;;;;;;8.73;99.44;100566.22;4993400;28;20045;-86
2022/04/05 07:08:18;;;;;;;12.33;5.73;;;;;;;8.71;99.40;100558.47;4993407;28;20026;-86
2022/04/05 07:10:43;;;;;;;12.00;5.47;;;;;;;8.73;99.25;100563.63;4994139;28;20060;-86
2022/04/05 07:13:09;;;;;;;13.73;6.00;;;;;;;8.70;100.00;100564.53;4993179;28;20050;-86
2022/04/05 07:15:34;;;;;;;12.17;5.83;;;;;;;8.69;99.61;100564.56;4993446;28;20041;-86
2022/04/05 07:17:59;;;;;;;10.10;5.63;;;;;;;8.68;99.71;100566.28;4993841;28;20043;-86
2022/04/05 07:20:25;;;;;;;9.40;5.53;;;;;;;8.69;99.61;100570.56;4992970;28;20034;-86
2022/04/05 07:22:50;;;;;;;10.57;5.13;;;;;;;8.68;99.76;100565.44;5000960;28;20386;-85
2022/04/05 07:25:16;;;;;;;8.80;5.00;;;;;;;8.69;99.62;100565.41;5013313;28;20113;-87
2022/04/05 07:27:44;;;;;;;11.10;5.40;;;;;;;8.68;99.49;100565.44;5001732;28;20057;-86
2022/04/05 07:30:10;;;;;;;10.75;5.40;;;;;;;8.69;99.24;100556.81;4993682;28;20050;-86
2022/04/05 07:32:42;;;;;;;10.35;4.88;;;;;;;8.69;99.44;100557.66;4992904;28;20069;-86
2022/04/05 07:35:08;;;;;;;9.27;4.88;;;;;;;8.70;99.22;100561.94;4993430;28;20029;-85
2022/04/05 07:37:35;;;;;;;9.45;4.85;;;;;;;8.69;99.21;100554.22;4993264;28;20058;-86
2022/04/05 07:40:05;;;;;;;10.10;4.97;;;;;;;8.71;99.53;100557.66;4992913;28;20030;-86
2022/04/05 07:42:31;;;;;;;11.05;5.50;;;;;;;8.72;99.19;100560.19;4993157;28;20092;-85
2022/04/05 07:44:57;;;;;;;10.73;5.43;;;;;;;8.72;99.03;100557.63;4995255;28;20537;-87
2022/04/05 07:47:22;;;;;;;8.83;4.90;;;;;;;8.75;99.17;100556.72;5013294;28;20026;-86
2022/04/05 07:49:48;;;;;;;9.40;5.17;;;;;;;8.75;99.17;100560.19;5012815;28;20034;-86
2022/04/05 07:52:14;;;;;;;9.57;4.80;;;;;;;8.76;99.20;100561.88;5013235;28;20117;-86
2022/04/05 07:54:40;;;;;;;8.73;4.65;;;;;;;8.75;98.95;100560.19;5011834;28;20532;-86
2022/04/05 07:57:08;;;;;;;9.65;5.00;;;;;;;8.76;99.01;100564.47;5012596;28;20026;-86
2022/04/05 07:59:34;;;;;;;8.25;4.40;;;;;;;8.77;98.80;100566.19;5012378;28;20038;-86
2022/04/05 08:01:59;;;;;;;10.77;5.03;;;;;;;8.78;98.58;100567.03;5015499;28;20017;-86
2022/04/05 08:04:24;;;;;;;7.93;4.57;;;;;;;8.81;98.47;100567.00;5016358;28;20050;-86
2022/04/05 08:06:49;;;;;;;10.27;4.80;;;;;;;8.85;98.38;100560.06;5016997;28;20030;-84
2022/04/05 08:09:15;;;;;;;9.53;4.80;;;;;;;8.87;98.32;100566.91;5015687;28;20121;-86
2022/04/05 08:11:40;;;;;;;7.53;4.47;;;;;;;8.91;98.56;100563.41;5016843;28;20048;-85
2022/04/05 08:14:05;;;;;;;11.07;4.47;;;;;;;8.95;98.43;100565.06;5004733;28;20034;-86
2022/04/05 08:16:30;;;;;;;8.40;4.30;;;;;;;8.98;98.39;100565.91;4995996;28;20482;-85
2022/04/05 08:18:58;;;;;;;6.90;4.30;;;;;;;8.96;98.15;100573.72;4996724;28;20028;-86
2022/04/05 08:21:23;;;;;;;10.90;4.40;;;;;;;8.97;97.80;100565.06;4996447;28;20466;-86
2022/04/05 08:23:50;;;;;;;7.37;4.33;;;;;;;8.99;97.56;100570.22;4995768;28;20109;-87
2022/04/05 08:26:16;;;;;;;9.60;4.65;;;;;;;8.99;97.41;100573.69;4996736;28;20058;-84
2022/04/05 08:28:41;;;;;;;6.00;3.80;;;;;;;8.99;97.40;100571.09;4996163;28;20056;-84
2022/04/05 08:31:07;;;;;;;6.80;3.80;;;;;;;9.00;97.37;100579.69;4996375;28;20019;-85
2022/04/05 08:33:35;;;;;;;6.13;3.50;;;;;;;9.02;97.28;100578.78;4996380;28;20101;-83
2022/04/05 08:36:00;;;;;;;6.50;3.72;;;;;;;9.05;97.37;100578.75;4996034;28;20102;-85
2022/04/05 08:38:28;;;;;;;8.90;4.00;;;;;;;9.07;97.26;100571.84;5000706;28;20528;-86
2022/04/05 08:40:54;;;;;;;8.15;4.40;;;;;;;9.13;97.08;100583.84;5016895;28;20030;-86
2022/04/05 08:43:19;;;;;;;6.73;4.20;;;;;;;9.19;97.28;100577.72;5016180;28;20025;-86
2022/04/05 08:45:52;;;;;;;9.30;4.45;;;;;;;9.23;97.13;100580.25;5032358;28;20075;-86
2022/04/05 08:48:21;;;;;;;5.85;3.90;;;;;;;9.31;97.31;100587.03;5011699;28;20033;-86
2022/04/05 08:50:47;;;;;;;7.63;4.20;;;;;;;9.36;97.37;100586.09;5015730;28;20018;-86
2022/04/05 08:53:13;;;;;;;7.60;3.93;;;;;;;9.39;97.03;100582.63;5016922;28;20026;-86
2022/04/05 08:55:38;;;;;;;7.57;4.27;;;;;;;9.41;97.08;100584.31;5015601;28;20482;-86
2022/04/05 08:58:04;;;;;;;4.90;3.33;;;;;;;9.43;97.09;100582.56;5030295;28;20032;-86
2022/04/05 09:00:30;;;;;;;8.43;4.30;;;;;;;9.44;96.66;100583.41;5035093;28;20026;-86
2022/04/05 09:03:04;;;;;;;6.72;4.07;;;;;;;9.46;96.67;100588.59;5010617;28;20366;-86
2022/04/05 09:05:32;;;;;;;5.85;3.80;;;;;;;9.49;96.98;100589.38;5018307;28;20029;-86
2022/04/05 09:08:19;;;;;;;6.60;4.10;;;;;;;9.52;96.92;100589.31;5015450;28;20057;-86
2022/04/05 09:10:51;;;;;;;6.30;4.10;;;;;;;9.55;96.98;100588.44;5014279;28;20494;-86
2022/04/05 09:13:21;;;;;;;8.15;4.38;;;;;;;9.62;96.12;100594.38;5013423;28;20061;-85
2022/04/05 09:15:50;;;;;;;8.85;4.50;;;;;;;9.63;96.47;100588.28;5015594;28;20152;-87
2022/04/05 09:18:27;;;;;;;10.32;4.63;;;;;;;9.64;95.90;100597.78;5014427;28;20132;-85
2022/04/05 09:20:53;;;;;;;7.13;4.20;;;;;;;9.63;96.06;100599.53;5015454;28;20029;-85
2022/04/05 09:23:30;;;;;;;7.87;4.20;;;;;;;9.64;96.11;100593.47;5014968;28;20036;-86
2022/04/05 09:26:00;;;;;;;6.30;4.10;;;;;;;9.67;96.78;100601.22;5014773;28;20409;-86
2022/04/05 09:28:34;;;;;;;7.45;4.38;;;;;;;9.69;96.08;100596.84;5015210;28;20022;-86
2022/04/05 09:31:02;;;;;;;7.65;4.10;;;;;;;9.71;96.20;100604.59;5015185;28;20037;-86
2022/04/05 09:33:29;;;;;;;6.25;3.78;;;;;;;9.73;96.03;100603.69;5020456;28;20017;-86
2022/04/05 09:36:16;;;;;;;7.45;4.60;;;;;;;9.80;95.76;100606.16;5029605;28;20116;-86
2022/04/05 09:38:44;;;;;;;8.00;4.40;;;;;;;9.83;95.58;100608.72;5014794;28;20053;-86
2022/04/05 09:41:20;;;;;;;9.15;4.70;;;;;;;9.85;96.12;100602.63;5010218;28;20034;-86
2022/04/05 09:43:54;;;;;;;6.60;4.18;;;;;;;9.92;95.49;100608.56;4994971;28;20491;-87
2022/04/05 09:46:20;;;;;;;8.07;4.53;;;;;;;9.91;95.95;100617.22;4993801;28;20517;-87
2022/04/05 09:48:46;;;;;;;7.35;3.92;;;;;;;9.92;96.08;100608.56;4995178;28;20397;-86
2022/04/05 09:51:16;;;;;;;7.33;4.00;;;;;;;9.94;96.20;100616.34;4993882;28;20105;-83
2022/04/05 09:53:50;;;;;;;8.05;4.50;;;;;;;9.95;96.03;100615.47;4994532;28;20026;-85
2022/04/05 09:56:18;;;;;;;6.22;3.97;;;;;;;9.94;96.13;100613.75;4993697;28;20027;-85
2022/04/05 09:59:03;;;;;;;7.10;4.38;;;;;;;9.93;96.43;100612.03;4994978;28;20483;-86
2022/04/05 10:01:30;;;;;;;7.28;4.20;;;;;;;9.94;96.57;100617.19;4994402;28;20026;-86
2022/04/05 10:04:10;;;;;;;5.88;4.03;;;;;;;9.93;96.40;100609.44;4994991;28;20050;-86
2022/04/05 10:06:43;;;;;;;5.53;3.67;;;;;;;9.97;96.86;100611.09;5003773;28;20484;-86
2022/04/05 10:09:09;;;;;;;5.90;3.70;;;;;;;9.98;96.07;100616.25;5013063;28;20129;-87
2022/04/05 10:11:40;;;;;;;6.70;3.78;;;;;;;10.00;95.97;100618.81;5014373;28;20042;-85
2022/04/05 10:14:08;;;;;;;6.07;3.70;;;;;;;10.01;96.09;100618.81;5014324;28;20532;-85
2022/04/05 10:16:34;;;;;;;5.95;3.92;;;;;;;10.05;96.63;100619.63;5013673;28;20445;-86
2022/04/05 10:19:04;;;;;;;5.53;3.70;;;;;;;10.12;96.33;100610.00;5014158;28;20601;-86
2022/04/05 10:21:37;;;;;;;6.35;3.67;;;;;;;10.16;95.97;100616.81;5013055;28;20029;-87
2022/04/05 10:24:04;;;;;;;7.32;4.20;;;;;;;10.17;96.03;100618.53;5013808;28;20371;-86
2022/04/05 10:26:32;;;;;;;7.30;4.20;;;;;;;10.24;95.84;100619.28;5013671;28;20141;-86
2022/04/05 10:29:00;;;;;;;7.35;4.22;;;;;;;10.26;95.95;100620.97;5013483;28;20112;-85
2022/04/05 10:31:38;;;;;;;6.93;4.07;;;;;;;10.29;95.71;100618.31;5013853;28;20026;-86
2022/04/05 10:34:27;;;;;;;6.82;4.10;;;;;;;10.32;95.42;100617.41;5014182;28;20034;-86
2022/04/05 10:37:07;;;;;;;5.90;3.95;;;;;;;10.35;95.45;100622.53;5001606;28;20060;-86
2022/04/05 10:39:32;;;;;;;5.32;3.70;;;;;;;10.40;95.23;100615.59;4993836;28;20081;-87
2022/04/05 10:42:13;;;;;;;7.30;4.50;;;;;;;10.45;94.10;100618.09;4994138;28;20530;-86
2022/04/05 10:45:09;;;;;;;5.85;3.70;;;;;;;10.46;94.84;100615.47;4994006;28;20049;-86
2022/04/05 10:47:53;;;;;;;;;;;;;;;10.44;94.12;100612.03;4995351;28;20035;-85
2022/04/05 10:50:18;;;;;;;6.93;3.80;;;;;;;10.46;94.04;100604.25;4992995;28;19987;-85
2022/04/05 10:52:47;;;;;;;6.80;3.70;;;;;;;10.53;93.72;100605.81;4994029;28;20473;-86
2022/04/05 10:55:18;;;;;;;6.20;3.90;;;;;;;10.58;93.18;100610.91;4994059;28;20022;-85
2022/04/05 10:57:43;;;;;;;5.60;3.60;;;;;;;10.64;93.46;100613.38;4993231;28;20022;-86
2022/04/05 11:00:19;;;;;;;5.87;4.00;;;;;;;10.72;93.17;100605.47;4994198;28;20080;-86
2022/04/05 11:03:02;;;;;;;6.40;3.95;;;;;;;10.77;92.54;100609.66;4993949;28;20073;-85
2022/04/05 11:05:38;;;;;;;7.35;4.03;;;;;;;10.80;92.27;100611.38;4992926;28;20081;-86
2022/04/05 11:08:11;;;;;;;6.40;3.80;;;;;;;10.82;93.15;100614.78;4996044;28;20041;-85
2022/04/05 11:10:36;;;;;;;4.80;3.47;;;;;;;10.88;92.15;100603.41;5011686;28;20109;-85
2022/04/05 11:13:37;;;;;;;6.90;3.60;;;;;;;10.94;91.78;100603.28;5016216;28;20505;-86
2022/04/05 11:16:03;;;;;;;6.80;4.03;;;;;;;10.97;90.84;100609.28;5014880;28;20429;-87
2022/04/05 11:18:33;;;;;;;6.27;3.70;;;;;;;11.03;91.04;100607.44;5012861;28;20057;-85
2022/04/05 11:20:59;;;;;;;5.40;3.65;;;;;;;11.05;90.19;100608.25;5013677;28;20118;-85
2022/04/05 11:23:40;;;;;;;5.50;3.60;;;;;;;11.02;90.69;100608.34;5012958;28;20025;-87
2022/04/05 11:26:24;;;;;;;4.85;3.50;;;;;;;10.97;90.96;100604.09;5012295;28;20059;-86
2022/04/05 11:28:50;;;;;;;5.30;3.22;;;;;;;10.99;91.41;100608.38;5012995;28;20541;-84
2022/04/05 11:31:34;;;;;;;5.47;3.27;;;;;;;11.01;91.09;100611.81;5013130;28;20057;-84
2022/04/05 11:34:00;;;;;;;5.82;3.70;;;;;;;10.94;90.08;100608.50;5012896;28;20493;-84